Record high temperature 33.3°C Record low temperature -27.0°C Record high gust 32.4 kts Record high average 15.7 kts Record daily rain 0.0 mm Record low windchill -28.7°C Record high barometer 1043.2 hPa Record low barometer 947.2 hPa
Daily high pressure 1004.6 hPa Daily low pressure 1002.3 hPa Daily low windchill 11.1°C Daily high heat index 15.6°C Daily high gust speed 17.3 kts WNW Daily high average speed 8.6 kts WNW
ESUI V?der
LAST READING AT TIME: 10:15 AM DATE: July 07 2022, time of next update: 10:20 am
Current WeatherDry Current Temperature 15.6°C (60.1°F), Apparent temp 13.8°C
Maximum Temperature (since midnight)15.6°C at: 10:00 AM Minimum Temperature (since midnight)11.1°C at: 1:56 AM
Average windspeed (ten minute)6.0 kts (11.1 kmh) Wind Direction (ten minute)WNW (292°)
Windchill Temperature 15.6°C Maximum Gust (last hour)14.6 kts (27.0 kmh) at: 9:29 AM
Maximum Gust (since midnight)17.3 kts (32.0 kmh) at: 8:29 AM Maximum 1 minute average (since midnight)8.6 kts (16.0 kmh) at: 9:29 AM
Rainfall (last hour)0.0 mm Rainfall (since midnight)0.0 mm (0.00 in.)---
Rainfall This month 0.0 mm (0.00 in.) Rainfall To date this year 0.0 mm (0.00 in.)
Maximum rain per minute (last hour)0.0 mm/min Maximum rain per hour (last 6 hours)0.0 mm/hour
Yesterdays rainfall 0.0 mm DewPoint 9.9°C (Wet Bulb :12.6°C )
Humidity 69 %, Humidex 16.9°C Barometer corrected to msl1004.6 hPa
Pressure change +0.5 hPa (last hour) Trend (last hour)STEADY
Pressure change (last 12 hours)+1.1 hPa Pressure change (last 6 hours)+2.2 hPa
Current Inne temp 28.4°C
Current Indoor Hum. 36%



Weather report/warning/Metars

Ornskoldsvik Airport, Sweden (ESNO) 63-24N 018-58E
Jul 07, 2022 - 03:50 AM EDT / 2022.07.07 0750 UTC
Wind: from the WNW (290 degrees) at 16 MPH (14 KT):0
Visibility: greater than 7 mile(s):0
Sky conditions: overcast
Temperature: 60 F (16 C)
Dew Point: 46 F (8 C)
Relative Humidity: 58%
Pressure (altimeter): 29.65 in. Hg (1004 hPa)
ob: ESNO 070750Z AUTO 29014KT 9999 SCT034/// OVC062/// 16/08 Q1004
cycle: 8
Kramfors Flygplats, Sweden (ESNK) 63-03N 017-46E 19M
Jul 07, 2022 - 03:50 AM EDT / 2022.07.07 0750 UTC
Wind: from the NW (310 degrees) at 14 MPH (12 KT) (direction variable):0
Visibility: greater than 7 mile(s):0
Sky conditions: mostly clear
Temperature: 60 F (16 C)
Dew Point: 39 F (4 C)
Relative Humidity: 44%
Pressure (altimeter): 29.71 in. Hg (1006 hPa)
ob: ESNK 070750Z AUTO 31012KT 280V340 9999 FEW042/// 16/04 Q1006
cycle: 8
Umea Flygplats, Sweden (ESNU) 63-48N 020-17E 14M
Jul 07, 2022 - 03:50 AM EDT / 2022.07.07 0750 UTC
Wind: from the NNW (330 degrees) at 7 MPH (6 KT):0
Visibility: greater than 7 mile(s):0
Sky conditions: partly cloudy
Weather: Towering cumulus clouds observed
Temperature: 57 F (14 C)
Dew Point: 53 F (12 C)
Relative Humidity: 87%
Pressure (altimeter): 29.62 in. Hg (1003 hPa)
ob: ESNU 070750Z 33006KT 9999 SCT060TCU 14/12 Q1003
cycle: 8
Skelleftea Airport, Sweden (ESNS) 64-38N 021-05E
Jul 07, 2022 - 03:50 AM EDT / 2022.07.07 0750 UTC
Wind: from the S (170 degrees) at 8 MPH (7 KT):0
Visibility: greater than 7 mile(s):0
Sky conditions: mostly cloudy
Temperature: 55 F (13 C)
Dew Point: 55 F (13 C)
Relative Humidity: 100%
Pressure (altimeter): 29.62 in. Hg (1003 hPa)
ob: ESNS 070750Z 17007KT 9999 SCT015 BKN055 13/13 Q1003
cycle: 8